Time;durP1;ratioP1;P1;durP2;ratioP2;P2;SDS_P1;SDS_P2;PMS_P1;PMS_P2;Temp;Humidity;BMP_temperature;BMP_pressure;BME280_temperature;BME280_humidity;BME280_pressure;Samples;Min_cycle;Max_cycle;Signal;HPM_P1;HPM_P2
2022/03/12 00:01:39;;;;;;;12.50;10.57;;;;;;;;;;6096714;23;20197;-89
2022/03/12 00:04:07;;;;;;;17.60;13.53;;;;;;;;;;6096674;23;20204;-89
2022/03/12 00:06:36;;;;;;;15.60;11.60;;;;;;;;;;6071718;23;20188;-90
2022/03/12 00:09:05;;;;;;;15.67;13.77;;;;;;;;;;6096593;23;20177;-89
2022/03/12 00:11:45;;;;;;;10.93;7.90;;;;;;;;;;6071994;23;20283;-89
2022/03/12 00:14:15;;;;;;;17.83;13.40;;;;;;;;;;6071552;23;20183;-90
2022/03/12 00:16:45;;;;;;;15.63;12.00;;;;;;;;;;6071944;23;20184;-89
2022/03/12 00:19:13;;;;;;;14.23;12.70;;;;;;;;;;6071753;23;20208;-88
2022/03/12 00:21:43;;;;;;;12.87;9.90;;;;;;;;;;6071642;23;20185;-88
2022/03/12 00:24:13;;;;;;;16.13;11.47;;;;;;;;;;6071757;23;20181;-90
2022/03/12 00:26:43;;;;;;;12.87;8.63;;;;;;;;;;6071274;23;20185;-88
2022/03/12 00:29:15;;;;;;;16.60;13.37;;;;;;;;;;6096956;23;20200;-90
2022/03/12 00:31:46;;;;;;;15.70;14.20;;;;;;;;;;6071910;23;20181;-90
2022/03/12 00:34:17;;;;;;;11.27;8.30;;;;;;;;;;6075236;23;20181;-90
2022/03/12 00:36:46;;;;;;;14.60;12.53;;;;;;;;;;6099047;23;20181;-89
2022/03/12 00:39:15;;;;;;;15.77;12.13;;;;;;;;;;6101225;23;20170;-89
2022/03/12 00:41:44;;;;;;;16.63;13.73;;;;;;;;;;6075816;23;20185;-88
2022/03/12 00:44:13;;;;;;;15.13;12.70;;;;;;;;;;6075925;23;20181;-91
2022/03/12 00:46:42;;;;;;;15.73;13.03;;;;;;;;;;6077309;23;20176;-90
2022/03/12 00:49:11;;;;;;;15.97;12.30;;;;;;;;;;6106611;23;20206;-90
2022/03/12 00:51:41;;;;;;;11.63;10.03;;;;;;;;;;6105737;23;20180;-89
2022/03/12 00:54:10;;;;;;;14.70;10.33;;;;;;;;;;6105735;23;20188;-89
2022/03/12 00:56:39;;;;;;;13.87;11.47;;;;;;;;;;6104108;23;20263;-90
2022/03/12 00:59:08;;;;;;;10.47;9.27;;;;;;;;;;6103010;23;20177;-89
2022/03/12 01:01:37;;;;;;;14.13;7.63;;;;;;;;;;6103070;23;20180;-90
2022/03/12 01:04:06;;;;;;;14.60;12.27;;;;;;;;;;6128647;23;20279;-89
2022/03/12 01:06:37;;;;;;;13.90;12.47;;;;;;;;;;6128753;23;20192;-90
2022/03/12 01:09:06;;;;;;;13.13;10.47;;;;;;;;;;6102463;23;20192;-90
2022/03/12 01:11:35;;;;;;;18.73;13.47;;;;;;;;;;6102290;23;20183;-90
2022/03/12 01:14:03;;;;;;;12.67;8.33;;;;;;;;;;6127895;23;20211;-90
2022/03/12 01:16:32;;;;;;;14.57;11.30;;;;;;;;;;6101765;23;20225;-90
2022/03/12 01:19:00;;;;;;;10.53;9.57;;;;;;;;;;6101719;23;20184;-91
2022/03/12 01:21:29;;;;;;;14.00;10.17;;;;;;;;;;6127277;23;20260;-89
2022/03/12 01:24:02;;;;;;;14.27;11.57;;;;;;;;;;6101588;23;20196;-90
2022/03/12 01:26:34;;;;;;;16.37;14.27;;;;;;;;;;6127192;23;20200;-90
2022/03/12 01:29:03;;;;;;;16.10;12.80;;;;;;;;;;6101962;23;20201;-90
2022/03/12 01:31:31;;;;;;;17.23;15.43;;;;;;;;;;6101630;23;20184;-89
2022/03/12 01:34:00;;;;;;;15.07;13.57;;;;;;;;;;6101676;23;20230;-90
2022/03/12 01:36:28;;;;;;;18.07;15.17;;;;;;;;;;6126828;23;20171;-89
2022/03/12 01:38:58;;;;;;;16.80;13.33;;;;;;;;;;6127296;23;20179;-89
2022/03/12 01:41:29;;;;;;;16.63;14.50;;;;;;;;;;6101668;23;20180;-89
2022/03/12 01:43:58;;;;;;;16.73;14.70;;;;;;;;;;6101293;23;20184;-90
2022/03/12 01:46:32;;;;;;;17.67;15.80;;;;;;;;;;6100998;23;20324;-89
2022/03/12 01:49:01;;;;;;;19.17;17.37;;;;;;;;;;6101373;23;20214;-89
2022/03/12 01:51:30;;;;;;;17.97;16.07;;;;;;;;;;6126721;23;20180;-89
2022/03/12 01:53:59;;;;;;;18.23;16.03;;;;;;;;;;6100931;23;20183;-90
2022/03/12 01:56:30;;;;;;;20.40;17.97;;;;;;;;;;6101128;23;20218;-90
2022/03/12 01:58:59;;;;;;;19.60;17.17;;;;;;;;;;6127138;23;20176;-90
2022/03/12 02:01:28;;;;;;;18.47;16.57;;;;;;;;;;6101444;23;20186;-88
2022/03/12 02:03:58;;;;;;;20.90;16.77;;;;;;;;;;6101043;23;20309;-89
2022/03/12 02:06:27;;;;;;;18.57;14.43;;;;;;;;;;6127025;23;20168;-89
2022/03/12 02:08:58;;;;;;;11.03;9.00;;;;;;;;;;6101300;23;20289;-89
2022/03/12 02:11:29;;;;;;;4.53;4.20;;;;;;;;;;6101471;23;20243;-89
2022/03/12 02:13:59;;;;;;;10.33;5.47;;;;;;;;;;6101226;23;20191;-90
2022/03/12 02:16:28;;;;;;;16.97;5.30;;;;;;;;;;6126728;23;20190;-88
2022/03/12 02:18:57;;;;;;;11.90;9.73;;;;;;;;;;6101163;23;20176;-89
2022/03/12 02:21:34;;;;;;;14.33;9.67;;;;;;;;;;6127096;23;20169;-89
2022/03/12 02:24:05;;;;;;;11.97;9.80;;;;;;;;;;6126335;23;20176;-90
2022/03/12 02:26:34;;;;;;;11.40;5.63;;;;;;;;;;6126887;23;20179;-89
2022/03/12 02:29:04;;;;;;;15.47;13.53;;;;;;;;;;6100444;23;20192;-89
2022/03/12 02:31:32;;;;;;;12.80;10.93;;;;;;;;;;6101526;23;20180;-89
2022/03/12 02:34:02;;;;;;;16.73;13.63;;;;;;;;;;6127491;23;20267;-89
2022/03/12 02:36:30;;;;;;;19.37;14.97;;;;;;;;;;6126344;23;20172;-89
2022/03/12 02:39:04;;;;;;;14.67;8.20;;;;;;;;;;6100583;23;20183;-89
2022/03/12 02:41:35;;;;;;;15.67;11.67;;;;;;;;;;6126585;23;20180;-89
2022/03/12 02:44:03;;;;;;;12.90;9.77;;;;;;;;;;6101347;23;20184;-90
2022/03/12 02:46:32;;;;;;;16.87;12.90;;;;;;;;;;6100813;23;20186;-90
2022/03/12 02:49:01;;;;;;;15.53;10.73;;;;;;;;;;6100463;23;20298;-89
2022/03/12 02:51:30;;;;;;;13.83;12.17;;;;;;;;;;6100652;23;20190;-90
2022/03/12 02:53:58;;;;;;;16.77;15.07;;;;;;;;;;6100635;23;20185;-88
2022/03/12 02:56:27;;;;;;;16.27;13.53;;;;;;;;;;6100701;23;20189;-90
2022/03/12 02:58:57;;;;;;;13.80;11.40;;;;;;;;;;6100750;23;20179;-90
2022/03/12 03:01:27;;;;;;;16.27;14.57;;;;;;;;;;6100867;23;20189;-90
2022/03/12 03:03:56;;;;;;;18.27;15.60;;;;;;;;;;6126472;23;20198;-89
2022/03/12 03:06:25;;;;;;;15.23;13.63;;;;;;;;;;6100918;23;20242;-90
2022/03/12 03:08:54;;;;;;;15.17;13.30;;;;;;;;;;6126049;23;20196;-90
2022/03/12 03:11:25;;;;;;;18.03;14.97;;;;;;;;;;6126879;23;20180;-89
2022/03/12 03:13:54;;;;;;;18.07;16.20;;;;;;;;;;6100528;23;20176;-90
2022/03/12 03:16:24;;;;;;;17.00;13.80;;;;;;;;;;6126374;23;20179;-90
2022/03/12 03:18:53;;;;;;;16.83;15.13;;;;;;;;;;6100785;23;20168;-90
2022/03/12 03:21:24;;;;;;;14.67;11.37;;;;;;;;;;6100253;23;20187;-89
2022/03/12 03:23:53;;;;;;;13.03;11.60;;;;;;;;;;6100680;23;20184;-89
2022/03/12 03:26:22;;;;;;;14.27;11.77;;;;;;;;;;6100631;23;20208;-89
2022/03/12 03:28:51;;;;;;;13.50;9.90;;;;;;;;;;6100618;23;20199;-90
2022/03/12 03:31:19;;;;;;;15.50;12.73;;;;;;;;;;6100487;23;20180;-88
2022/03/12 03:33:49;;;;;;;15.70;14.10;;;;;;;;;;6125987;23;20248;-89
2022/03/12 03:36:18;;;;;;;14.23;12.83;;;;;;;;;;6100689;23;20180;-89
2022/03/12 03:38:47;;;;;;;13.33;11.93;;;;;;;;;;6100229;23;20210;-90
2022/03/12 03:41:15;;;;;;;15.23;13.70;;;;;;;;;;6100807;23;20187;-89
2022/03/12 03:43:46;;;;;;;16.83;14.37;;;;;;;;;;6100431;23;20179;-89
2022/03/12 03:46:17;;;;;;;13.13;10.47;;;;;;;;;;6100344;23;20186;-90
2022/03/12 03:48:47;;;;;;;13.27;10.37;;;;;;;;;;6126280;23;20214;-89
2022/03/12 03:51:17;;;;;;;15.67;13.70;;;;;;;;;;6126383;23;20270;-89
2022/03/12 03:53:46;;;;;;;8.37;6.97;;;;;;;;;;6100514;23;20258;-89
2022/03/12 03:56:14;;;;;;;16.70;15.10;;;;;;;;;;6100707;23;20183;-90
2022/03/12 03:58:43;;;;;;;15.27;13.87;;;;;;;;;;6100541;23;20179;-89
2022/03/12 04:01:12;;;;;;;17.20;12.77;;;;;;;;;;6100363;23;20176;-89
2022/03/12 04:03:48;;;;;;;16.07;12.37;;;;;;;;;;6125718;23;20192;-89
2022/03/12 04:06:19;;;;;;;15.73;14.13;;;;;;;;;;6126272;23;20225;-89
2022/03/12 04:08:47;;;;;;;16.40;12.53;;;;;;;;;;6127025;23;20175;-89
2022/03/12 04:11:17;;;;;;;14.87;13.37;;;;;;;;;;6102566;23;20270;-90
2022/03/12 04:13:45;;;;;;;15.60;13.30;;;;;;;;;;6128658;23;20178;-89
2022/03/12 04:16:14;;;;;;;14.83;13.40;;;;;;;;;;6126814;23;20185;-90
2022/03/12 04:18:45;;;;;;;16.80;15.30;;;;;;;;;;6101953;23;20190;-90
2022/03/12 04:21:14;;;;;;;14.77;13.23;;;;;;;;;;6128239;23;20226;-89
2022/03/12 04:23:45;;;;;;;15.07;13.50;;;;;;;;;;6101895;23;20176;-89
2022/03/12 04:26:14;;;;;;;16.13;12.03;;;;;;;;;;6102868;23;20176;-89
2022/03/12 04:28:43;;;;;;;10.47;6.33;;;;;;;;;;6101831;23;20184;-90
2022/03/12 04:31:13;;;;;;;12.90;10.53;;;;;;;;;;6128361;23;20192;-90
2022/03/12 04:33:42;;;;;;;15.57;11.50;;;;;;;;;;6101879;23;20179;-88
2022/03/12 04:36:11;;;;;;;10.13;6.57;;;;;;;;;;6127806;23;20182;-90
2022/03/12 04:38:39;;;;;;;13.63;11.07;;;;;;;;;;6127851;23;20182;-89
2022/03/12 04:41:13;;;;;;;13.20;10.73;;;;;;;;;;6102619;23;20179;-89
2022/03/12 04:43:43;;;;;;;15.50;12.87;;;;;;;;;;6101993;23;20207;-89
2022/03/12 04:46:12;;;;;;;14.37;12.70;;;;;;;;;;6102311;23;20183;-90
2022/03/12 04:48:41;;;;;;;14.23;12.83;;;;;;;;;;6127687;23;20217;-89
2022/03/12 04:51:10;;;;;;;11.43;9.07;;;;;;;;;;6127587;23;20192;-89
2022/03/12 04:53:39;;;;;;;9.60;8.70;;;;;;;;;;6127498;23;20234;-89
2022/03/12 04:56:09;;;;;;;14.10;12.60;;;;;;;;;;6102678;23;20184;-90
2022/03/12 04:58:39;;;;;;;12.33;11.03;;;;;;;;;;6102064;23;20187;-90
2022/03/12 05:01:08;;;;;;;11.43;10.33;;;;;;;;;;6101703;23;20271;-89
2022/03/12 05:03:38;;;;;;;12.30;11.00;;;;;;;;;;6101759;23;20200;-89
2022/03/12 05:06:08;;;;;;;12.47;11.37;;;;;;;;;;6101806;23;20185;-90
2022/03/12 05:08:36;;;;;;;10.73;9.73;;;;;;;;;;6127433;23;20196;-89
2022/03/12 05:11:05;;;;;;;9.87;8.90;;;;;;;;;;6127416;23;20225;-89
2022/03/12 05:13:34;;;;;;;12.00;8.83;;;;;;;;;;6127389;23;20176;-89
2022/03/12 05:16:06;;;;;;;7.60;6.67;;;;;;;;;;6127455;23;20246;-90
2022/03/12 05:18:36;;;;;;;8.73;7.30;;;;;;;;;;6101586;23;20174;-89
2022/03/12 05:21:05;;;;;;;10.93;9.47;;;;;;;;;;6102097;23;20190;-87
2022/03/12 05:23:34;;;;;;;9.63;8.63;;;;;;;;;;6101703;23;20214;-89
2022/03/12 05:26:02;;;;;;;10.20;9.13;;;;;;;;;;6127580;23;20181;-90
2022/03/12 05:28:32;;;;;;;11.63;10.53;;;;;;;;;;6101908;23;20183;-89
2022/03/12 05:31:04;;;;;;;12.27;11.07;;;;;;;;;;6101630;23;20279;-90
2022/03/12 05:33:35;;;;;;;9.87;8.97;;;;;;;;;;6127227;23;20182;-90
2022/03/12 05:36:04;;;;;;;10.33;9.33;;;;;;;;;;6127447;23;20179;-90
2022/03/12 05:38:34;;;;;;;11.13;9.97;;;;;;;;;;6101774;23;20186;-89
2022/03/12 05:41:07;;;;;;;11.33;10.13;;;;;;;;;;6101733;23;20184;-89
2022/03/12 05:43:39;;;;;;;9.20;7.90;;;;;;;;;;6127139;23;20168;-90
2022/03/12 05:46:07;;;;;;;11.40;10.30;;;;;;;;;;6101337;23;20183;-89
2022/03/12 05:48:37;;;;;;;9.20;6.90;;;;;;;;;;6101334;23;20212;-89
2022/03/12 05:51:09;;;;;;;10.47;9.43;;;;;;;;;;6101368;23;20201;-89
2022/03/12 05:53:38;;;;;;;10.30;9.30;;;;;;;;;;6101115;23;20259;-90
2022/03/12 05:56:07;;;;;;;11.93;10.90;;;;;;;;;;6101572;23;20208;-89
2022/03/12 05:58:38;;;;;;;10.97;9.87;;;;;;;;;;6101477;23;20183;-89
2022/03/12 06:01:06;;;;;;;7.47;6.77;;;;;;;;;;6101499;23;20176;-89
2022/03/12 06:03:35;;;;;;;12.03;10.73;;;;;;;;;;6100978;23;20243;-89
2022/03/12 06:06:05;;;;;;;9.43;7.93;;;;;;;;;;6126879;23;20182;-90
2022/03/12 06:08:34;;;;;;;11.17;9.93;;;;;;;;;;6101630;23;20188;-89
2022/03/12 06:11:03;;;;;;;11.87;10.77;;;;;;;;;;6101194;23;20270;-89
2022/03/12 06:13:32;;;;;;;11.83;10.63;;;;;;;;;;6126954;23;20181;-89
2022/03/12 06:16:03;;;;;;;12.43;11.13;;;;;;;;;;6126866;23;20198;-89
2022/03/12 06:18:34;;;;;;;13.03;10.93;;;;;;;;;;6101239;23;20175;-90
2022/03/12 06:21:03;;;;;;;12.13;10.60;;;;;;;;;;6101154;23;20177;-89
2022/03/12 06:23:33;;;;;;;11.67;10.47;;;;;;;;;;6126991;23;20179;-89
2022/03/12 06:26:03;;;;;;;8.70;7.80;;;;;;;;;;6101457;23;20206;-89
2022/03/12 06:28:34;;;;;;;12.20;11.00;;;;;;;;;;6100406;23;20274;-89
2022/03/12 06:31:02;;;;;;;11.43;10.33;;;;;;;;;;6126148;23;20277;-90
2022/03/12 06:33:31;;;;;;;11.60;10.47;;;;;;;;;;6100759;23;20185;-89
2022/03/12 06:36:01;;;;;;;11.10;10.10;;;;;;;;;;6101049;23;20218;-90
2022/03/12 06:38:30;;;;;;;10.03;8.13;;;;;;;;;;6126236;23;20229;-89
2022/03/12 06:41:00;;;;;;;9.07;7.50;;;;;;;;;;6100769;23;20182;-89
2022/03/12 06:43:28;;;;;;;11.63;10.53;;;;;;;;;;6126571;23;20214;-87
2022/03/12 06:46:01;;;;;;;10.90;9.43;;;;;;;;;;6100272;23;20180;-88
2022/03/12 06:48:31;;;;;;;10.73;9.73;;;;;;;;;;6100112;23;20211;-89
2022/03/12 06:51:00;;;;;;;10.57;9.50;;;;;;;;;;6100834;23;20201;-90
2022/03/12 06:53:28;;;;;;;10.73;9.23;;;;;;;;;;6100489;23;20176;-89
2022/03/12 06:55:58;;;;;;;11.37;10.27;;;;;;;;;;6126595;23;20171;-90
2022/03/12 06:58:29;;;;;;;8.13;6.70;;;;;;;;;;6100291;23;20178;-89
2022/03/12 07:00:58;;;;;;;10.93;9.83;;;;;;;;;;6100581;23;20198;-89
2022/03/12 07:03:27;;;;;;;9.60;8.67;;;;;;;;;;6126225;23;20198;-90
2022/03/12 07:05:55;;;;;;;10.17;9.10;;;;;;;;;;6100689;23;20187;-89
2022/03/12 07:08:24;;;;;;;10.83;9.83;;;;;;;;;;6100708;23;20206;-89
2022/03/12 07:10:53;;;;;;;8.57;6.60;;;;;;;;;;6126310;23;20192;-88
2022/03/12 07:13:22;;;;;;;8.30;7.50;;;;;;;;;;6100324;23;20183;-90
2022/03/12 07:15:52;;;;;;;8.67;7.77;;;;;;;;;;6125974;23;20176;-88
2022/03/12 07:18:20;;;;;;;8.37;6.97;;;;;;;;;;6100820;23;20176;-89
2022/03/12 07:20:49;;;;;;;8.33;7.50;;;;;;;;;;6100158;23;20185;-90
2022/03/12 07:23:17;;;;;;;8.47;7.67;;;;;;;;;;6100676;23;20196;-88
2022/03/12 07:25:46;;;;;;;8.93;7.87;;;;;;;;;;6100718;23;20181;-89
2022/03/12 07:28:17;;;;;;;9.73;8.73;;;;;;;;;;6125773;23;20172;-89
2022/03/12 07:30:45;;;;;;;8.20;7.40;;;;;;;;;;6102196;23;20182;-89
2022/03/12 07:33:17;;;;;;;8.93;7.20;;;;;;;;;;6101757;23;20222;-89
2022/03/12 07:35:45;;;;;;;5.73;5.17;;;;;;;;;;6102309;23;20175;-89
2022/03/12 07:38:14;;;;;;;8.47;7.67;;;;;;;;;;6101668;23;20177;-90
2022/03/12 07:40:43;;;;;;;11.10;9.73;;;;;;;;;;6103292;23;20238;-90
2022/03/12 07:43:11;;;;;;;10.33;9.23;;;;;;;;;;6102652;23;20274;-87
2022/03/12 07:45:39;;;;;;;7.90;7.10;;;;;;;;;;6103964;23;20209;-88
2022/03/12 07:48:08;;;;;;;8.40;7.70;;;;;;;;;;6103423;23;20210;-89
2022/03/12 07:51:00;;;;;;;10.47;9.47;;;;;;;;;;6100549;23;20181;-89
2022/03/12 07:53:28;;;;;;;10.50;9.50;;;;;;;;;;6101057;23;20189;-89
2022/03/12 07:55:57;;;;;;;10.63;9.57;;;;;;;;;;6100682;23;20176;-89
2022/03/12 07:58:27;;;;;;;7.87;6.77;;;;;;;;;;6099665;23;20213;-89
2022/03/12 08:00:59;;;;;;;9.83;8.83;;;;;;;;;;6100473;23;20276;-89
2022/03/12 08:03:28;;;;;;;7.90;7.10;;;;;;;;;;6125508;23;20246;-89
2022/03/12 08:06:01;;;;;;;10.67;9.67;;;;;;;;;;6125428;23;20176;-89
2022/03/12 08:08:30;;;;;;;10.57;9.57;;;;;;;;;;6099523;23;20186;-89
2022/03/12 08:13:46;;;;;;;7.30;6.50;;;;;;;;;;6099756;23;20182;-89
2022/03/12 08:16:15;;;;;;;9.83;9.00;;;;;;;;;;6099573;23;20184;-89
2022/03/12 08:18:44;;;;;;;9.23;8.33;;;;;;;;;;6125009;23;20336;-89
2022/03/12 08:21:15;;;;;;;10.77;9.83;;;;;;;;;;6099863;23;20227;-88
2022/03/12 08:23:46;;;;;;;8.00;7.20;;;;;;;;;;6099646;23;20180;-85
2022/03/12 08:26:20;;;;;;;10.83;9.83;;;;;;;;;;6098458;23;20188;-89
2022/03/12 08:28:49;;;;;;;12.13;10.93;;;;;;;;;;6099378;23;20244;-89
2022/03/12 08:31:18;;;;;;;9.70;8.80;;;;;;;;;;6124768;23;20176;-89
2022/03/12 08:33:50;;;;;;;9.47;8.60;;;;;;;;;;6098947;23;20267;-90
2022/03/12 08:36:20;;;;;;;10.80;9.83;;;;;;;;;;6098520;23;20211;-89
2022/03/12 08:38:50;;;;;;;10.13;8.47;;;;;;;;;;6098961;23;20177;-88
2022/03/12 08:41:19;;;;;;;5.17;4.37;;;;;;;;;;6099554;23;20235;-90
2022/03/12 08:43:49;;;;;;;9.93;9.00;;;;;;;;;;6099891;23;20176;-88
2022/03/12 08:46:17;;;;;;;9.60;8.80;;;;;;;;;;6099041;23;20180;-92
2022/03/12 08:48:50;;;;;;;6.87;5.73;;;;;;;;;;6099127;23;20204;-90
2022/03/12 08:51:19;;;;;;;10.10;9.20;;;;;;;;;;6099011;23;20283;-88
2022/03/12 08:53:49;;;;;;;5.90;4.80;;;;;;;;;;6098917;23;20177;-88
2022/03/12 08:56:18;;;;;;;10.43;6.67;;;;;;;;;;6100503;23;20180;-88
2022/03/12 08:58:47;;;;;;;8.00;7.30;;;;;;;;;;6101442;23;20180;-90
2022/03/12 09:01:18;;;;;;;8.07;6.43;;;;;;;;;;6101451;23;20231;-89
2022/03/12 09:03:47;;;;;;;8.33;6.30;;;;;;;;;;6102090;23;20236;-90
2022/03/12 09:06:15;;;;;;;11.73;7.93;;;;;;;;;;6101435;23;20176;-88
2022/03/12 09:08:44;;;;;;;8.03;7.23;;;;;;;;;;6102009;23;20227;-90
2022/03/12 09:11:16;;;;;;;6.83;6.23;;;;;;;;;;6101391;23;20177;-90
2022/03/12 09:13:45;;;;;;;7.57;6.97;;;;;;;;;;6101817;23;20192;-90
2022/03/12 09:16:15;;;;;;;7.80;5.63;;;;;;;;;;6101130;23;20208;-90
2022/03/12 09:18:44;;;;;;;8.90;6.43;;;;;;;;;;6101410;23;20219;-89
2022/03/12 09:21:12;;;;;;;8.30;7.60;;;;;;;;;;6101646;23;20180;-89
2022/03/12 09:23:41;;;;;;;4.60;3.57;;;;;;;;;;6100934;23;20177;-90
2022/03/12 09:26:14;;;;;;;5.63;4.97;;;;;;;;;;6101375;23;20240;-90
2022/03/12 09:28:43;;;;;;;5.77;3.77;;;;;;;;;;6101721;23;20177;-89
2022/03/12 09:31:12;;;;;;;5.37;4.83;;;;;;;;;;6100664;23;20184;-89
2022/03/12 09:33:41;;;;;;;7.47;5.00;;;;;;;;;;6126438;23;20188;-90
2022/03/12 09:36:11;;;;;;;6.23;4.70;;;;;;;;;;6127394;23;20168;-90
2022/03/12 09:38:40;;;;;;;6.20;3.63;;;;;;;;;;6101048;23;20180;-90
2022/03/12 09:41:11;;;;;;;5.40;4.37;;;;;;;;;;6099932;23;20180;-89
2022/03/12 09:43:41;;;;;;;6.63;5.70;;;;;;;;;;6101611;23;20224;-89
2022/03/12 09:46:12;;;;;;;5.70;5.10;;;;;;;;;;6101509;23;20178;-90
2022/03/12 09:48:41;;;;;;;7.43;4.30;;;;;;;;;;6101124;23;20209;-90
2022/03/12 09:51:10;;;;;;;6.27;4.93;;;;;;;;;;6100932;23;20263;-89
2022/03/12 09:53:41;;;;;;;2.57;2.37;;;;;;;;;;6101042;23;20203;-87
2022/03/12 09:56:10;;;;;;;4.27;3.13;;;;;;;;;;6101043;23;20177;-91
2022/03/12 09:58:38;;;;;;;6.70;5.83;;;;;;;;;;6101153;23;20260;-88
2022/03/12 10:01:12;;;;;;;6.50;4.97;;;;;;;;;;6100786;23;20209;-91
2022/03/12 10:03:42;;;;;;;3.90;3.00;;;;;;;;;;6126731;23;20253;-90
2022/03/12 10:06:11;;;;;;;7.33;4.50;;;;;;;;;;6100373;23;20250;-90
2022/03/12 10:08:44;;;;;;;5.37;4.93;;;;;;;;;;6101491;23;20181;-90
2022/03/12 10:11:12;;;;;;;4.53;3.37;;;;;;;;;;6126950;23;20191;-90
2022/03/12 10:13:41;;;;;;;5.93;5.43;;;;;;;;;;6100739;23;20258;-89
2022/03/12 10:16:10;;;;;;;2.33;2.13;;;;;;;;;;6100919;23;20177;-89
2022/03/12 10:18:41;;;;;;;5.17;4.60;;;;;;;;;;6126683;23;20174;-89
2022/03/12 10:21:13;;;;;;;7.30;5.53;;;;;;;;;;6100339;23;20186;-90
2022/03/12 10:23:41;;;;;;;6.43;5.83;;;;;;;;;;6126607;23;20176;-89
2022/03/12 10:26:10;;;;;;;8.37;5.80;;;;;;;;;;6100825;23;20183;-89
2022/03/12 10:28:38;;;;;;;6.77;5.37;;;;;;;;;;6100784;23;20177;-89
2022/03/12 10:31:07;;;;;;;8.63;5.60;;;;;;;;;;6100862;23;20181;-90
2022/03/12 10:33:36;;;;;;;5.97;5.37;;;;;;;;;;6100434;23;20288;-90
2022/03/12 10:36:12;;;;;;;5.60;5.10;;;;;;;;;;6126298;23;20201;-90
2022/03/12 10:38:44;;;;;;;3.97;3.23;;;;;;;;;;6100475;23;20267;-91
2022/03/12 10:41:13;;;;;;;4.90;4.40;;;;;;;;;;6100940;23;20180;-90
2022/03/12 10:43:48;;;;;;;5.87;4.57;;;;;;;;;;6101075;23;20180;-89
2022/03/12 10:46:21;;;;;;;6.03;5.10;;;;;;;;;;6126226;23;20173;-90
2022/03/12 10:48:53;;;;;;;4.97;4.37;;;;;;;;;;6100752;23;20214;-90
2022/03/12 10:51:25;;;;;;;6.43;5.13;;;;;;;;;;6100641;23;20185;-89
2022/03/12 10:54:04;;;;;;;6.83;6.10;;;;;;;;;;6126470;23;20193;-90
2022/03/12 10:56:42;;;;;;;4.30;3.27;;;;;;;;;;6100635;23;20177;-90
2022/03/12 10:59:15;;;;;;;11.17;4.73;;;;;;;;;;6100819;23;20183;-90
2022/03/12 11:01:50;;;;;;;6.43;4.33;;;;;;;;;;6100263;23;20182;-90
2022/03/12 11:04:20;;;;;;;4.53;3.23;;;;;;;;;;6100807;23;20194;-91
2022/03/12 11:06:50;;;;;;;6.33;4.23;;;;;;;;;;6100395;23;20267;-90
2022/03/12 11:09:19;;;;;;;6.27;4.00;;;;;;;;;;6126386;23;20178;-90
2022/03/12 11:11:48;;;;;;;6.40;4.47;;;;;;;;;;6100239;23;20181;-89
2022/03/12 11:14:20;;;;;;;3.93;3.53;;;;;;;;;;6101166;23;20197;-90
2022/03/12 11:16:54;;;;;;;5.10;3.70;;;;;;;;;;6126123;23;20179;-90
2022/03/12 11:19:37;;;;;;;4.20;3.80;;;;;;;;;;6100984;23;20187;-87
2022/03/12 11:22:14;;;;;;;6.10;4.00;;;;;;;;;;6125743;23;20185;-90
2022/03/12 11:24:47;;;;;;;4.77;3.87;;;;;;;;;;6101278;23;20176;-88
2022/03/12 11:27:22;;;;;;;7.37;4.20;;;;;;;;;;6100330;23;20182;-90
2022/03/12 11:29:58;;;;;;;4.70;4.20;;;;;;;;;;6100194;23;20185;-91
2022/03/12 11:32:35;;;;;;;4.23;3.83;;;;;;;;;;6100319;23;20212;-90
2022/03/12 11:35:06;;;;;;;7.87;3.87;;;;;;;;;;6100016;23;20196;-88
2022/03/12 11:37:37;;;;;;;4.03;3.37;;;;;;;;;;6100011;23;20188;-90
2022/03/12 11:40:09;;;;;;;5.97;3.97;;;;;;;;;;6126158;23;20181;-90
2022/03/12 11:42:38;;;;;;;5.97;3.60;;;;;;;;;;6100521;23;20254;-91
2022/03/12 11:45:14;;;;;;;7.67;4.03;;;;;;;;;;6100254;23;20207;-90
2022/03/12 11:47:44;;;;;;;6.50;4.33;;;;;;;;;;6125580;23;20205;-91
2022/03/12 11:50:15;;;;;;;5.83;3.90;;;;;;;;;;6125856;23;20180;-90
2022/03/12 11:52:45;;;;;;;3.87;2.57;;;;;;;;;;6126174;23;20180;-91
2022/03/12 11:55:17;;;;;;;4.43;3.20;;;;;;;;;;6125807;23;20205;-91
2022/03/12 11:57:47;;;;;;;8.87;3.37;;;;;;;;;;6100414;23;20185;-90
2022/03/12 12:00:22;;;;;;;3.80;3.50;;;;;;;;;;6125697;23;20178;-91
2022/03/12 12:02:51;;;;;;;4.00;3.17;;;;;;;;;;6100435;23;20264;-91
2022/03/12 12:05:22;;;;;;;6.27;3.93;;;;;;;;;;6099955;23;20212;-91
2022/03/12 12:07:52;;;;;;;3.97;2.60;;;;;;;;;;6125886;23;20176;-92
2022/03/12 12:10:21;;;;;;;2.27;2.07;;;;;;;;;;6100454;23;20183;-91
2022/03/12 12:12:51;;;;;;;3.63;2.93;;;;;;;;;;6099831;23;20183;-91
2022/03/12 12:15:25;;;;;;;5.00;3.03;;;;;;;;;;6125898;23;20190;-91
2022/03/12 12:17:54;;;;;;;4.23;2.40;;;;;;;;;;6099760;23;20264;-90
2022/03/12 12:20:23;;;;;;;3.93;2.97;;;;;;;;;;6126107;23;20173;-92
2022/03/12 12:22:57;;;;;;;4.90;2.43;;;;;;;;;;6099892;23;20180;-92
2022/03/12 12:25:26;;;;;;;3.00;2.17;;;;;;;;;;6100396;23;20384;-90
2022/03/12 12:27:55;;;;;;;3.83;2.57;;;;;;;;;;6100755;23;20191;-91
2022/03/12 12:30:37;;;;;;;4.90;3.00;;;;;;;;;;6101310;23;20213;-90
2022/03/12 12:33:17;;;;;;;2.30;2.10;;;;;;;;;;6102460;23;20182;-90
2022/03/12 12:35:45;;;;;;;4.40;2.73;;;;;;;;;;6101896;23;20427;-91
2022/03/12 12:38:17;;;;;;;3.60;2.13;;;;;;;;;;6101852;23;20591;-91
2022/03/12 12:40:48;;;;;;;2.00;1.80;;;;;;;;;;6127635;23;20186;-91
2022/03/12 12:43:18;;;;;;;6.37;2.77;;;;;;;;;;6101691;23;20179;-92
2022/03/12 12:46:12;;;;;;;3.97;2.40;;;;;;;;;;6101722;23;20175;-90
2022/03/12 12:48:43;;;;;;;3.67;2.93;;;;;;;;;;6076260;23;20215;-93
2022/03/12 12:51:15;;;;;;;4.10;2.53;;;;;;;;;;6101531;23;20186;-91
2022/03/12 12:53:46;;;;;;;0.90;0.90;;;;;;;;;;6127649;23;20191;-91
2022/03/12 12:56:20;;;;;;;5.07;2.27;;;;;;;;;;6101584;23;20187;-91
2022/03/12 12:58:50;;;;;;;6.70;3.27;;;;;;;;;;6102027;23;20189;-90
2022/03/12 13:01:19;;;;;;;3.40;1.97;;;;;;;;;;6101787;23;20180;-91
2022/03/12 13:03:50;;;;;;;4.33;2.77;;;;;;;;;;6101717;23;20207;-90
2022/03/12 13:06:33;;;;;;;3.77;2.40;;;;;;;;;;6126842;23;20174;-92
2022/03/12 13:09:08;;;;;;;2.30;2.07;;;;;;;;;;6100775;23;20183;-91
2022/03/12 13:11:38;;;;;;;1.70;1.47;;;;;;;;;;6101234;23;20174;-92
2022/03/12 13:14:09;;;;;;;3.43;2.13;;;;;;;;;;6101632;23;20195;-92
2022/03/12 13:16:54;;;;;;;1.73;1.63;;;;;;;;;;6101715;23;20179;-91
2022/03/12 13:19:41;;;;;;;3.97;2.63;;;;;;;;;;6127114;23;20175;-91
2022/03/12 13:22:10;;;;;;;5.20;3.30;;;;;;;;;;6101646;23;20208;-88
2022/03/12 13:24:46;;;;;;;2.13;1.93;;;;;;;;;;6101353;23;20278;-91
2022/03/12 13:27:19;;;;;;;4.57;1.57;;;;;;;;;;6101800;23;20187;-91
2022/03/12 13:29:48;;;;;;;4.17;2.47;;;;;;;;;;6101530;23;20184;-91
2022/03/12 13:32:23;;;;;;;6.10;2.63;;;;;;;;;;6101776;23;20505;-91
2022/03/12 13:34:52;;;;;;;4.03;2.50;;;;;;;;;;6101470;23;20226;-91
2022/03/12 13:37:20;;;;;;;3.60;2.90;;;;;;;;;;6102239;23;20183;-91
2022/03/12 13:39:50;;;;;;;2.73;2.37;;;;;;;;;;6127199;23;20185;-90
2022/03/12 13:42:19;;;;;;;4.40;2.53;;;;;;;;;;6101397;23;20209;-91
2022/03/12 13:44:48;;;;;;;4.07;2.37;;;;;;;;;;6126758;23;20246;-91
2022/03/12 13:47:20;;;;;;;3.53;2.30;;;;;;;;;;6101219;23;20211;-90
2022/03/12 13:49:51;;;;;;;5.13;2.17;;;;;;;;;;6101479;23;20229;-90
2022/03/12 13:52:20;;;;;;;4.27;2.60;;;;;;;;;;6101651;23;20185;-91
2022/03/12 13:54:59;;;;;;;4.27;2.67;;;;;;;;;;6101295;23;20209;-92
2022/03/12 13:57:28;;;;;;;3.40;2.27;;;;;;;;;;6101687;23;20307;-91
2022/03/12 14:00:04;;;;;;;3.30;2.23;;;;;;;;;;6101630;23;20190;-90
2022/03/12 14:02:34;;;;;;;2.70;1.67;;;;;;;;;;6101491;23;20277;-91
2022/03/12 14:05:03;;;;;;;4.27;2.50;;;;;;;;;;6100654;23;20195;-90
2022/03/12 14:07:32;;;;;;;2.87;2.57;;;;;;;;;;6127247;23;20188;-88
2022/03/12 14:10:08;;;;;;;4.20;2.43;;;;;;;;;;6127075;23;20195;-92
2022/03/12 14:12:37;;;;;;;4.40;2.50;;;;;;;;;;6101274;23;20177;-92
2022/03/12 14:15:06;;;;;;;5.67;2.40;;;;;;;;;;6126695;23;20273;-91
2022/03/12 14:17:35;;;;;;;4.90;2.13;;;;;;;;;;6100927;23;20182;-91
2022/03/12 14:20:05;;;;;;;2.80;1.70;;;;;;;;;;6126757;23;20186;-91
2022/03/12 14:22:34;;;;;;;2.90;2.63;;;;;;;;;;6101219;23;20184;-90
2022/03/12 14:25:05;;;;;;;3.33;2.60;;;;;;;;;;6100822;23;20258;-90
2022/03/12 14:27:38;;;;;;;1.80;1.57;;;;;;;;;;6101306;23;20183;-91
2022/03/12 14:30:08;;;;;;;2.57;1.70;;;;;;;;;;6101195;23;20176;-91
2022/03/12 14:32:37;;;;;;;3.77;1.73;;;;;;;;;;6101623;23;20183;-92
2022/03/12 14:35:06;;;;;;;4.10;2.40;;;;;;;;;;6101019;23;20203;-92
2022/03/12 14:37:34;;;;;;;4.23;2.53;;;;;;;;;;6127182;23;20176;-91
2022/03/12 14:40:04;;;;;;;3.63;2.20;;;;;;;;;;6102162;23;20242;-91
2022/03/12 14:42:36;;;;;;;3.13;2.17;;;;;;;;;;6128586;23;20421;-88
2022/03/12 14:45:07;;;;;;;0.83;0.83;;;;;;;;;;6102266;23;20175;-91
2022/03/12 14:47:36;;;;;;;1.70;1.47;;;;;;;;;;6128610;23;20207;-91
2022/03/12 14:50:08;;;;;;;3.47;2.50;;;;;;;;;;6101927;23;20175;-90
2022/03/12 14:52:37;;;;;;;2.67;2.40;;;;;;;;;;6127800;23;20172;-91
2022/03/12 14:55:07;;;;;;;1.20;0.83;;;;;;;;;;6101571;23;20209;-90